Terminal Aerodrome Forecast
Issued by NWS Albany, NY

Home | Current Version | Previous Version | Text Only | Print | Product List | Glossary On
Versions: 1 2 3 4 5 6 7 8 9 10 11 12 13 14 15 16 17 18 19 20 21 22 23 24 25 26 27 28 29 30 31 32 33
000
FTUS41 KALY 241100
TAFALB
TAF
KALB 241133Z 2412/2512 36004KT P6SM -RA SCT007 OVC015
      TEMPO 2412/2415 2SM -RA BR OVC007
     FM241500 35008KT P6SM VCSH OVC020
     FM241800 32010KT P6SM VCSH OVC035
     FM242300 32010KT P6SM SCT035 BKN080
     FM250300 31007KT P6SM SCT080=

USA.gov is the U.S. government's official web portal to all federal, state and local government web resources and services.